sensor_id;sensor_type;location;lat;lon;timestamp;pressure;altitude;pressure_sealevel;temperature;humidity
35716;BME280;21840;44.920;8.616;2023-03-26T00:01:17;99958.69;;;17.44;44.86
35716;BME280;21840;44.920;8.616;2023-03-26T00:03:43;99964.03;;;17.23;45.08
35716;BME280;21840;44.920;8.616;2023-03-26T00:06:15;99964.59;;;17.40;44.95
35716;BME280;21840;44.920;8.616;2023-03-26T00:08:42;99962.38;;;17.43;45.01
35716;BME280;21840;44.920;8.616;2023-03-26T00:11:11;99956.44;;;17.41;45.02
35716;BME280;21840;44.920;8.616;2023-03-26T00:13:37;99944.69;;;17.51;44.78
35716;BME280;21840;44.920;8.616;2023-03-26T00:16:04;99946.53;;;17.50;44.80
35716;BME280;21840;44.920;8.616;2023-03-26T00:18:30;99942.59;;;17.46;44.82
35716;BME280;21840;44.920;8.616;2023-03-26T00:21:01;99935.34;;;17.55;44.76
35716;BME280;21840;44.920;8.616;2023-03-26T00:23:28;99934.06;;;17.51;44.93
35716;BME280;21840;44.920;8.616;2023-03-26T00:25:54;99943.41;;;17.46;45.12
35716;BME280;21840;44.920;8.616;2023-03-26T00:28:21;99945.63;;;17.43;44.99
35716;BME280;21840;44.920;8.616;2023-03-26T00:30:49;99936.97;;;17.34;45.53
35716;BME280;21840;44.920;8.616;2023-03-26T00:33:15;99942.91;;;17.36;45.46
35716;BME280;21840;44.920;8.616;2023-03-26T00:35:43;99942.03;;;17.29;45.54
35716;BME280;21840;44.920;8.616;2023-03-26T00:38:12;99947.41;;;16.99;46.15
35716;BME280;21840;44.920;8.616;2023-03-26T00:40:38;99937.81;;;16.98;46.13
35716;BME280;21840;44.920;8.616;2023-03-26T00:43:09;99934.63;;;17.03;45.98
35716;BME280;21840;44.920;8.616;2023-03-26T00:45:53;99939.41;;;16.93;46.30
35716;BME280;21840;44.920;8.616;2023-03-26T00:48:22;99944.41;;;17.02;46.00
35716;BME280;21840;44.920;8.616;2023-03-26T00:50:49;99943.16;;;17.20;45.84
35716;BME280;21840;44.920;8.616;2023-03-26T00:53:16;99936.03;;;17.20;45.72
35716;BME280;21840;44.920;8.616;2023-03-26T00:55:43;99940.63;;;17.12;45.60
35716;BME280;21840;44.920;8.616;2023-03-26T00:58:10;99937.59;;;17.15;45.56
35716;BME280;21840;44.920;8.616;2023-03-26T01:00:42;99933.94;;;17.16;45.71
35716;BME280;21840;44.920;8.616;2023-03-26T01:03:11;99932.31;;;17.15;45.77
35716;BME280;21840;44.920;8.616;2023-03-26T01:05:46;99928.75;;;17.08;45.86
35716;BME280;21840;44.920;8.616;2023-03-26T01:08:38;99922.00;;;17.05;45.91
35716;BME280;21840;44.920;8.616;2023-03-26T01:11:11;99905.44;;;17.03;46.10
35716;BME280;21840;44.920;8.616;2023-03-26T01:13:44;99897.59;;;16.95;46.15
35716;BME280;21840;44.920;8.616;2023-03-26T01:16:26;99907.50;;;16.86;46.45
35716;BME280;21840;44.920;8.616;2023-03-26T01:18:53;99903.72;;;16.95;46.05
35716;BME280;21840;44.920;8.616;2023-03-26T01:21:21;99918.34;;;16.40;47.47
35716;BME280;21840;44.920;8.616;2023-03-26T01:26:53;99899.75;;;16.55;47.11
35716;BME280;21840;44.920;8.616;2023-03-26T01:37:43;99891.34;;;16.51;47.11
35716;BME280;21840;44.920;8.616;2023-03-26T01:40:08;99885.50;;;16.41;47.01
35716;BME280;21840;44.920;8.616;2023-03-26T01:43:46;99887.09;;;16.21;47.20
35716;BME280;21840;44.920;8.616;2023-03-26T01:45:52;99877.47;;;15.75;48.00
35716;BME280;21840;44.920;8.616;2023-03-26T01:48:18;99875.94;;;15.58;48.47
35716;BME280;21840;44.920;8.616;2023-03-26T01:50:44;99871.75;;;15.63;48.27
35716;BME280;21840;44.920;8.616;2023-03-26T01:53:11;99872.81;;;15.54;48.24
35716;BME280;21840;44.920;8.616;2023-03-26T01:56:17;99859.69;;;15.61;47.95
35716;BME280;21840;44.920;8.616;2023-03-26T02:02:02;99869.78;;;14.96;50.08
35716;BME280;21840;44.920;8.616;2023-03-26T02:04:40;99874.84;;;15.06;49.66
35716;BME280;21840;44.920;8.616;2023-03-26T02:07:16;99872.59;;;14.72;49.92
35716;BME280;21840;44.920;8.616;2023-03-26T02:09:48;99870.16;;;14.93;49.10
35716;BME280;21840;44.920;8.616;2023-03-26T02:12:16;99861.94;;;14.80;49.16
35716;BME280;21840;44.920;8.616;2023-03-26T02:14:43;99861.06;;;14.87;48.74
35716;BME280;21840;44.920;8.616;2023-03-26T02:17:09;99863.03;;;14.71;49.01
35716;BME280;21840;44.920;8.616;2023-03-26T02:19:39;99869.88;;;14.80;49.26
35716;BME280;21840;44.920;8.616;2023-03-26T02:22:08;99861.78;;;14.42;50.15
35716;BME280;21840;44.920;8.616;2023-03-26T02:24:37;99861.28;;;14.46;49.91
35716;BME280;21840;44.920;8.616;2023-03-26T02:27:04;99861.28;;;14.46;49.35
35716;BME280;21840;44.920;8.616;2023-03-26T02:29:35;99866.78;;;14.37;49.22
35716;BME280;21840;44.920;8.616;2023-03-26T02:32:08;99869.22;;;14.46;48.13
35716;BME280;21840;44.920;8.616;2023-03-26T02:34:40;99866.41;;;14.40;47.88
35716;BME280;21840;44.920;8.616;2023-03-26T02:37:07;99852.53;;;14.54;47.51
35716;BME280;21840;44.920;8.616;2023-03-26T02:39:34;99855.47;;;14.12;48.05
35716;BME280;21840;44.920;8.616;2023-03-26T02:42:08;99852.75;;;14.36;47.79
35716;BME280;21840;44.920;8.616;2023-03-26T02:44:39;99854.81;;;14.18;48.27
35716;BME280;21840;44.920;8.616;2023-03-26T02:47:11;99864.09;;;14.06;48.42
35716;BME280;21840;44.920;8.616;2023-03-26T02:49:52;99875.81;;;13.95;48.83
35716;BME280;21840;44.920;8.616;2023-03-26T02:52:27;99867.06;;;13.94;48.77
35716;BME280;21840;44.920;8.616;2023-03-26T02:54:56;99851.00;;;14.12;48.68
35716;BME280;21840;44.920;8.616;2023-03-26T02:57:24;99848.06;;;14.15;48.54
35716;BME280;21840;44.920;8.616;2023-03-26T03:00:06;99844.81;;;13.89;49.04
35716;BME280;21840;44.920;8.616;2023-03-26T03:02:35;99842.09;;;13.41;50.64
35716;BME280;21840;44.920;8.616;2023-03-26T03:05:23;99838.28;;;13.19;51.03
35716;BME280;21840;44.920;8.616;2023-03-26T03:08:06;99834.03;;;13.51;50.59
35716;BME280;21840;44.920;8.616;2023-03-26T03:10:35;99831.53;;;13.66;50.37
35716;BME280;21840;44.920;8.616;2023-03-26T03:13:07;99823.53;;;13.90;50.07
35716;BME280;21840;44.920;8.616;2023-03-26T03:15:33;99827.19;;;13.81;50.47
35716;BME280;21840;44.920;8.616;2023-03-26T03:17:59;99829.88;;;13.40;52.01
35716;BME280;21840;44.920;8.616;2023-03-26T03:20:28;99833.50;;;13.47;52.38
35716;BME280;21840;44.920;8.616;2023-03-26T03:22:54;99829.97;;;13.88;50.90
35716;BME280;21840;44.920;8.616;2023-03-26T03:25:20;99826.84;;;13.84;50.71
35716;BME280;21840;44.920;8.616;2023-03-26T03:27:46;99817.13;;;13.85;51.30
35716;BME280;21840;44.920;8.616;2023-03-26T03:30:13;99816.75;;;13.96;50.80
35716;BME280;21840;44.920;8.616;2023-03-26T03:32:44;99818.25;;;13.90;50.75
35716;BME280;21840;44.920;8.616;2023-03-26T03:35:11;99816.88;;;14.02;50.26
35716;BME280;21840;44.920;8.616;2023-03-26T03:37:39;99827.47;;;13.94;49.90
35716;BME280;21840;44.920;8.616;2023-03-26T03:40:08;99824.88;;;13.86;49.67
35716;BME280;21840;44.920;8.616;2023-03-26T03:42:36;99819.31;;;13.73;49.15
35716;BME280;21840;44.920;8.616;2023-03-26T03:45:04;99805.13;;;13.66;48.81
35716;BME280;21840;44.920;8.616;2023-03-26T03:47:45;99803.53;;;13.32;50.03
35716;BME280;21840;44.920;8.616;2023-03-26T03:50:13;99807.78;;;13.00;51.35
35716;BME280;21840;44.920;8.616;2023-03-26T03:52:48;99810.28;;;13.26;50.96
35716;BME280;21840;44.920;8.616;2023-03-26T03:55:15;99821.81;;;13.01;51.68
35716;BME280;21840;44.920;8.616;2023-03-26T03:57:47;99809.44;;;13.01;51.50
35716;BME280;21840;44.920;8.616;2023-03-26T04:00:17;99807.63;;;13.10;51.33
35716;BME280;21840;44.920;8.616;2023-03-26T04:02:50;99803.47;;;12.83;52.23
35716;BME280;21840;44.920;8.616;2023-03-26T04:05:19;99809.59;;;13.00;51.78
35716;BME280;21840;44.920;8.616;2023-03-26T04:07:48;99822.09;;;12.73;51.75
35716;BME280;21840;44.920;8.616;2023-03-26T04:10:17;99817.34;;;12.93;49.92
35716;BME280;21840;44.920;8.616;2023-03-26T04:13:01;99819.22;;;12.50;49.89
35716;BME280;21840;44.920;8.616;2023-03-26T04:15:44;99820.91;;;12.67;49.51
35716;BME280;21840;44.920;8.616;2023-03-26T04:18:10;99829.81;;;12.66;49.08
35716;BME280;21840;44.920;8.616;2023-03-26T04:20:38;99816.78;;;12.06;50.11
35716;BME280;21840;44.920;8.616;2023-03-26T04:23:07;99823.66;;;12.33;50.00
35716;BME280;21840;44.920;8.616;2023-03-26T04:25:45;99824.81;;;12.47;49.52
35716;BME280;21840;44.920;8.616;2023-03-26T04:28:32;99833.78;;;12.20;49.93
35716;BME280;21840;44.920;8.616;2023-03-26T04:31:18;99839.56;;;12.23;50.24
35716;BME280;21840;44.920;8.616;2023-03-26T04:33:50;99839.06;;;12.28;49.23
35716;BME280;21840;44.920;8.616;2023-03-26T04:36:26;99844.06;;;12.05;49.80
35716;BME280;21840;44.920;8.616;2023-03-26T04:38:53;99840.84;;;12.19;49.05
35716;BME280;21840;44.920;8.616;2023-03-26T04:41:28;99841.34;;;11.62;49.80
35716;BME280;21840;44.920;8.616;2023-03-26T04:44:00;99831.00;;;12.21;49.22
35716;BME280;21840;44.920;8.616;2023-03-26T04:46:31;99826.75;;;12.28;48.87
35716;BME280;21840;44.920;8.616;2023-03-26T04:49:18;99834.59;;;12.20;49.06
35716;BME280;21840;44.920;8.616;2023-03-26T04:51:44;99846.16;;;12.27;49.01
35716;BME280;21840;44.920;8.616;2023-03-26T04:54:31;99840.78;;;12.03;49.95
35716;BME280;21840;44.920;8.616;2023-03-26T04:57:07;99833.69;;;12.38;48.99
35716;BME280;21840;44.920;8.616;2023-03-26T04:59:44;99826.19;;;12.67;48.89
35716;BME280;21840;44.920;8.616;2023-03-26T05:02:12;99828.69;;;12.85;48.47
35716;BME280;21840;44.920;8.616;2023-03-26T05:04:56;99823.59;;;13.00;48.34
35716;BME280;21840;44.920;8.616;2023-03-26T05:07:24;99823.09;;;13.05;48.41
35716;BME280;21840;44.920;8.616;2023-03-26T05:09:53;99818.84;;;12.95;48.77
35716;BME280;21840;44.920;8.616;2023-03-26T05:12:31;99816.03;;;13.22;49.06
35716;BME280;21840;44.920;8.616;2023-03-26T05:15:02;99814.72;;;13.26;49.17
35716;BME280;21840;44.920;8.616;2023-03-26T05:17:48;99813.25;;;13.23;49.43
35716;BME280;21840;44.920;8.616;2023-03-26T05:20:34;99812.09;;;13.26;49.60
35716;BME280;21840;44.920;8.616;2023-03-26T05:23:01;99808.97;;;13.30;49.70
35716;BME280;21840;44.920;8.616;2023-03-26T05:25:29;99797.75;;;13.12;50.09
35716;BME280;21840;44.920;8.616;2023-03-26T05:27:56;99758.38;;;12.94;50.35
35716;BME280;21840;44.920;8.616;2023-03-26T05:30:26;99754.25;;;13.16;50.18
35716;BME280;21840;44.920;8.616;2023-03-26T05:32:56;99772.88;;;13.14;50.29
35716;BME280;21840;44.920;8.616;2023-03-26T05:35:27;99795.78;;;13.30;50.25
35716;BME280;21840;44.920;8.616;2023-03-26T05:37:53;99803.50;;;13.40;50.11
35716;BME280;21840;44.920;8.616;2023-03-26T05:40:22;99807.94;;;13.64;49.70
35716;BME280;21840;44.920;8.616;2023-03-26T05:42:53;99809.28;;;13.52;49.84
35716;BME280;21840;44.920;8.616;2023-03-26T05:45:27;99817.00;;;13.70;50.14
35716;BME280;21840;44.920;8.616;2023-03-26T05:47:54;99825.19;;;13.91;49.67
35716;BME280;21840;44.920;8.616;2023-03-26T05:50:23;99830.50;;;13.83;49.90
35716;BME280;21840;44.920;8.616;2023-03-26T05:52:50;99837.06;;;13.95;49.07
35716;BME280;21840;44.920;8.616;2023-03-26T05:55:34;99828.97;;;13.97;49.20
35716;BME280;21840;44.920;8.616;2023-03-26T05:58:24;99828.00;;;13.81;49.17
35716;BME280;21840;44.920;8.616;2023-03-26T06:01:15;99825.22;;;13.75;49.05
35716;BME280;21840;44.920;8.616;2023-03-26T06:04:17;99829.16;;;13.95;48.94
35716;BME280;21840;44.920;8.616;2023-03-26T06:06:58;99842.78;;;14.15;48.92
35716;BME280;21840;44.920;8.616;2023-03-26T06:09:23;99850.47;;;14.33;48.35
35716;BME280;21840;44.920;8.616;2023-03-26T06:11:49;99851.56;;;14.39;48.27
35716;BME280;21840;44.920;8.616;2023-03-26T06:14:15;99855.84;;;14.48;47.82
35716;BME280;21840;44.920;8.616;2023-03-26T06:17:00;99848.06;;;14.55;46.99
35716;BME280;21840;44.920;8.616;2023-03-26T06:19:26;99840.56;;;14.66;46.25
35716;BME280;21840;44.920;8.616;2023-03-26T06:21:58;99830.34;;;14.63;46.17
35716;BME280;21840;44.920;8.616;2023-03-26T06:24:31;99823.19;;;14.72;45.25
35716;BME280;21840;44.920;8.616;2023-03-26T06:27:15;99815.38;;;14.56;45.41
35716;BME280;21840;44.920;8.616;2023-03-26T06:29:59;99831.97;;;14.73;44.58
35716;BME280;21840;44.920;8.616;2023-03-26T06:32:43;99826.03;;;14.94;44.18
35716;BME280;21840;44.920;8.616;2023-03-26T06:35:12;99822.63;;;15.08;43.66
35716;BME280;21840;44.920;8.616;2023-03-26T06:37:39;99819.28;;;15.29;42.40
35716;BME280;21840;44.920;8.616;2023-03-26T06:40:06;99826.41;;;15.28;42.17
35716;BME280;21840;44.920;8.616;2023-03-26T06:43:07;99825.72;;;15.49;41.58
35716;BME280;21840;44.920;8.616;2023-03-26T06:45:49;99811.84;;;15.47;41.34
35716;BME280;21840;44.920;8.616;2023-03-26T06:48:33;99795.63;;;15.65;41.15
35716;BME280;21840;44.920;8.616;2023-03-26T06:51:18;99802.28;;;15.61;40.99
35716;BME280;21840;44.920;8.616;2023-03-26T06:54:02;99801.16;;;15.79;41.03
35716;BME280;21840;44.920;8.616;2023-03-26T06:56:50;99797.09;;;15.68;41.32
35716;BME280;21840;44.920;8.616;2023-03-26T06:59:34;99794.75;;;15.88;40.94
35716;BME280;21840;44.920;8.616;2023-03-26T07:02:26;99777.69;;;15.76;41.50
35716;BME280;21840;44.920;8.616;2023-03-26T07:05:10;99769.09;;;16.03;41.15
35716;BME280;21840;44.920;8.616;2023-03-26T07:07:54;99764.72;;;16.32;40.77
35716;BME280;21840;44.920;8.616;2023-03-26T07:10:38;99773.22;;;16.27;41.08
35716;BME280;21840;44.920;8.616;2023-03-26T07:13:37;99765.41;;;16.55;41.02
35716;BME280;21840;44.920;8.616;2023-03-26T07:16:22;99764.44;;;16.63;41.18
35716;BME280;21840;44.920;8.616;2023-03-26T07:19:11;99762.66;;;16.49;41.07
35716;BME280;21840;44.920;8.616;2023-03-26T07:21:38;99754.91;;;16.47;41.22
35716;BME280;21840;44.920;8.616;2023-03-26T07:24:20;99757.63;;;16.54;41.16
35716;BME280;21840;44.920;8.616;2023-03-26T07:27:22;99750.03;;;16.72;41.10
35716;BME280;21840;44.920;8.616;2023-03-26T07:30:14;99744.84;;;16.79;40.75
35716;BME280;21840;44.920;8.616;2023-03-26T07:42:27;99757.28;;;17.28;40.22
35716;BME280;21840;44.920;8.616;2023-03-26T07:45:37;99755.63;;;17.27;39.84
35716;BME280;21840;44.920;8.616;2023-03-26T07:48:20;99750.56;;;17.04;40.22
35716;BME280;21840;44.920;8.616;2023-03-26T07:51:04;99763.59;;;17.55;39.76
35716;BME280;21840;44.920;8.616;2023-03-26T07:53:50;99767.41;;;17.46;39.89
35716;BME280;21840;44.920;8.616;2023-03-26T07:59:50;99757.81;;;17.45;39.64
35716;BME280;21840;44.920;8.616;2023-03-26T08:06:15;99758.88;;;17.85;39.00
35716;BME280;21840;44.920;8.616;2023-03-26T08:12:45;99746.97;;;17.75;39.26
35716;BME280;21840;44.920;8.616;2023-03-26T08:15:27;99742.59;;;18.02;39.17
35716;BME280;21840;44.920;8.616;2023-03-26T08:20:36;99723.84;;;18.10;39.01
35716;BME280;21840;44.920;8.616;2023-03-26T08:26:00;99731.34;;;18.81;38.37
35716;BME280;21840;44.920;8.616;2023-03-26T08:31:04;99741.38;;;19.06;37.79
35716;BME280;21840;44.920;8.616;2023-03-26T08:33:32;99739.91;;;19.36;37.54
35716;BME280;21840;44.920;8.616;2023-03-26T08:35:58;99730.69;;;19.39;37.45
35716;BME280;21840;44.920;8.616;2023-03-26T08:38:24;99723.69;;;19.65;37.33
35716;BME280;21840;44.920;8.616;2023-03-26T09:04:20;99695.19;;;20.48;36.11
35716;BME280;21840;44.920;8.616;2023-03-26T09:09:51;99690.06;;;20.79;35.54
35716;BME280;21840;44.920;8.616;2023-03-26T09:40:19;99650.44;;;21.01;34.59
35716;BME280;21840;44.920;8.616;2023-03-26T09:59:34;99567.91;;;20.06;36.28
35716;BME280;21840;44.920;8.616;2023-03-26T10:05:00;99573.44;;;20.61;35.77
35716;BME280;21840;44.920;8.616;2023-03-26T10:07:51;99574.81;;;20.88;35.43
35716;BME280;21840;44.920;8.616;2023-03-26T10:10:42;99583.69;;;21.38;34.74
35716;BME280;21840;44.920;8.616;2023-03-26T10:16:05;99582.47;;;22.12;33.15
35716;BME280;21840;44.920;8.616;2023-03-26T10:37:39;99551.59;;;23.39;32.04
35716;BME280;21840;44.920;8.616;2023-03-26T10:40:22;99564.06;;;23.34;32.53
35716;BME280;21840;44.920;8.616;2023-03-26T10:54:34;99593.69;;;22.33;34.26
35716;BME280;21840;44.920;8.616;2023-03-26T10:57:05;99587.75;;;22.31;34.29
35716;BME280;21840;44.920;8.616;2023-03-26T10:59:34;99564.91;;;22.16;34.54
35716;BME280;21840;44.920;8.616;2023-03-26T11:07:46;99573.13;;;21.61;35.58
35716;BME280;21840;44.920;8.616;2023-03-26T11:10:24;99564.75;;;21.58;35.71
35716;BME280;21840;44.920;8.616;2023-03-26T11:28:24;99539.25;;;21.62;35.46
35716;BME280;21840;44.920;8.616;2023-03-26T11:30:38;99536.88;;;21.53;35.53
35716;BME280;21840;44.920;8.616;2023-03-26T11:33:12;99544.13;;;21.65;35.48
35716;BME280;21840;44.920;8.616;2023-03-26T11:35:44;99533.50;;;21.58;35.78
35716;BME280;21840;44.920;8.616;2023-03-26T11:38:33;99539.72;;;21.70;35.41
35716;BME280;21840;44.920;8.616;2023-03-26T11:41:04;99538.06;;;22.00;35.18
35716;BME280;21840;44.920;8.616;2023-03-26T11:43:49;99527.81;;;22.08;34.92
35716;BME280;21840;44.920;8.616;2023-03-26T11:46:19;99517.38;;;22.07;35.27
35716;BME280;21840;44.920;8.616;2023-03-26T11:48:48;99507.94;;;22.16;34.86
35716;BME280;21840;44.920;8.616;2023-03-26T11:51:34;99503.56;;;22.33;34.81
35716;BME280;21840;44.920;8.616;2023-03-26T11:54:02;99509.16;;;22.20;34.81
35716;BME280;21840;44.920;8.616;2023-03-26T11:56:34;99503.94;;;22.37;34.76
35716;BME280;21840;44.920;8.616;2023-03-26T11:59:10;99485.91;;;22.32;34.97
35716;BME280;21840;44.920;8.616;2023-03-26T12:04:26;99491.19;;;22.79;33.86
35716;BME280;21840;44.920;8.616;2023-03-26T12:06:55;99491.56;;;22.59;34.03
35716;BME280;21840;44.920;8.616;2023-03-26T12:09:22;99478.25;;;23.00;33.65
35716;BME280;21840;44.920;8.616;2023-03-26T12:11:52;99483.09;;;22.91;33.80
35716;BME280;21840;44.920;8.616;2023-03-26T12:14:23;99493.66;;;22.69;34.12
35716;BME280;21840;44.920;8.616;2023-03-26T12:19:25;99481.94;;;22.35;34.44
35716;BME280;21840;44.920;8.616;2023-03-26T12:21:53;99470.06;;;22.19;34.93
35716;BME280;21840;44.920;8.616;2023-03-26T12:24:32;99461.13;;;22.37;34.91
35716;BME280;21840;44.920;8.616;2023-03-26T12:27:01;99457.13;;;22.51;34.76
35716;BME280;21840;44.920;8.616;2023-03-26T12:29:28;99452.84;;;22.50;34.79
35716;BME280;21840;44.920;8.616;2023-03-26T12:32:12;99443.22;;;22.78;34.07
35716;BME280;21840;44.920;8.616;2023-03-26T12:34:38;99440.06;;;22.81;34.30
35716;BME280;21840;44.920;8.616;2023-03-26T12:37:06;99439.63;;;22.32;34.85
35716;BME280;21840;44.920;8.616;2023-03-26T12:39:40;99441.56;;;22.01;35.49
35716;BME280;21840;44.920;8.616;2023-03-26T12:42:30;99449.03;;;21.99;35.79
35716;BME280;21840;44.920;8.616;2023-03-26T12:44:57;99446.34;;;21.99;35.74
35716;BME280;21840;44.920;8.616;2023-03-26T12:47:32;99433.31;;;22.14;35.70
35716;BME280;21840;44.920;8.616;2023-03-26T12:49:58;99433.88;;;21.93;36.04
35716;BME280;21840;44.920;8.616;2023-03-26T12:55:38;99408.03;;;22.57;35.19
35716;BME280;21840;44.920;8.616;2023-03-26T12:58:34;99390.00;;;22.65;35.22
35716;BME280;21840;44.920;8.616;2023-03-26T13:06:40;99385.81;;;22.57;35.42
35716;BME280;21840;44.920;8.616;2023-03-26T13:20:05;99385.53;;;21.47;37.92
35716;BME280;21840;44.920;8.616;2023-03-26T13:25:54;99396.41;;;21.04;38.61
35716;BME280;21840;44.920;8.616;2023-03-26T13:28:39;99395.41;;;20.86;38.90
35716;BME280;21840;44.920;8.616;2023-03-26T13:34:24;99392.69;;;21.05;39.02
35716;BME280;21840;44.920;8.616;2023-03-26T13:47:49;99392.38;;;20.83;39.34
35716;BME280;21840;44.920;8.616;2023-03-26T13:50:31;99393.06;;;20.78;39.30
35716;BME280;21840;44.920;8.616;2023-03-26T13:53:06;99379.09;;;20.95;38.86
35716;BME280;21840;44.920;8.616;2023-03-26T13:55:42;99367.97;;;20.98;39.54
35716;BME280;21840;44.920;8.616;2023-03-26T14:01:26;99394.34;;;20.57;40.51
35716;BME280;21840;44.920;8.616;2023-03-26T14:07:07;99384.13;;;20.17;42.55
35716;BME280;21840;44.920;8.616;2023-03-26T14:09:43;99381.03;;;19.77;42.89
35716;BME280;21840;44.920;8.616;2023-03-26T14:12:19;99370.53;;;19.82;43.36
35716;BME280;21840;44.920;8.616;2023-03-26T14:14:50;99358.88;;;19.51;44.26
35716;BME280;21840;44.920;8.616;2023-03-26T14:17:26;99365.88;;;19.21;45.33
35716;BME280;21840;44.920;8.616;2023-03-26T14:23:02;99369.91;;;18.53;47.74
35716;BME280;21840;44.920;8.616;2023-03-26T14:25:54;99377.06;;;18.46;48.63
35716;BME280;21840;44.920;8.616;2023-03-26T14:45:16;99385.38;;;17.64;53.71
35716;BME280;21840;44.920;8.616;2023-03-26T14:51:00;99257.53;;;17.81;52.80
35716;BME280;21840;44.920;8.616;2023-03-26T14:53:32;99246.94;;;17.61;53.38
35716;BME280;21840;44.920;8.616;2023-03-26T15:12:39;99094.72;;;18.12;49.10
35716;BME280;21840;44.920;8.616;2023-03-26T15:18:16;99057.19;;;18.02;48.70
35716;BME280;21840;44.920;8.616;2023-03-26T15:23:53;98954.91;;;18.36;47.71
35716;BME280;21840;44.920;8.616;2023-03-26T15:32:18;99059.44;;;18.80;45.53
35716;BME280;21840;44.920;8.616;2023-03-26T15:37:43;99118.06;;;18.10;48.27
35716;BME280;21840;44.920;8.616;2023-03-26T15:43:12;99116.22;;;18.36;46.60
35716;BME280;21840;44.920;8.616;2023-03-26T15:46:24;99122.47;;;18.80;45.72
35716;BME280;21840;44.920;8.616;2023-03-26T15:48:35;99112.50;;;18.93;45.20
35716;BME280;21840;44.920;8.616;2023-03-26T15:51:26;99121.06;;;18.95;44.76
35716;BME280;21840;44.920;8.616;2023-03-26T15:54:15;99154.94;;;18.82;45.91
35716;BME280;21840;44.920;8.616;2023-03-26T15:57:15;99177.63;;;18.27;48.27
35716;BME280;21840;44.920;8.616;2023-03-26T16:02:45;99193.25;;;18.10;50.26
35716;BME280;21840;44.920;8.616;2023-03-26T16:15:28;99170.28;;;22.83;41.34
35716;BME280;21840;44.920;8.616;2023-03-26T16:25:57;99169.28;;;25.03;35.82
35716;BME280;21840;44.920;8.616;2023-03-26T16:28:30;99171.59;;;23.36;38.26
35716;BME280;21840;44.920;8.616;2023-03-26T16:33:49;99165.41;;;22.01;40.68
35716;BME280;21840;44.920;8.616;2023-03-26T16:36:31;99161.22;;;21.64;41.66
35716;BME280;21840;44.920;8.616;2023-03-26T16:47:23;99194.84;;;20.17;44.47
35716;BME280;21840;44.920;8.616;2023-03-26T16:52:49;99204.53;;;19.81;44.92
35716;BME280;21840;44.920;8.616;2023-03-26T16:55:38;99202.19;;;19.67;45.21
35716;BME280;21840;44.920;8.616;2023-03-26T16:58:15;99213.91;;;19.84;44.88
35716;BME280;21840;44.920;8.616;2023-03-26T17:00:50;99218.03;;;19.61;45.04
35716;BME280;21840;44.920;8.616;2023-03-26T17:06:02;99220.28;;;19.21;45.85
35716;BME280;21840;44.920;8.616;2023-03-26T17:16:34;99215.00;;;18.64;48.06
35716;BME280;21840;44.920;8.616;2023-03-26T17:22:04;99220.28;;;18.71;48.12
35716;BME280;21840;44.920;8.616;2023-03-26T17:24:50;99220.31;;;18.64;48.06
35716;BME280;21840;44.920;8.616;2023-03-26T17:27:44;99216.94;;;18.50;48.58
35716;BME280;21840;44.920;8.616;2023-03-26T17:40:58;99203.38;;;18.27;49.35
35716;BME280;21840;44.920;8.616;2023-03-26T17:43:46;99210.03;;;18.04;49.54
35716;BME280;21840;44.920;8.616;2023-03-26T17:51:59;99202.84;;;17.46;50.99
35716;BME280;21840;44.920;8.616;2023-03-26T17:54:31;99201.56;;;17.69;50.47
35716;BME280;21840;44.920;8.616;2023-03-26T17:57:05;99208.09;;;17.73;50.10
35716;BME280;21840;44.920;8.616;2023-03-26T17:59:32;99203.06;;;17.45;50.91
35716;BME280;21840;44.920;8.616;2023-03-26T18:02:00;99201.66;;;17.42;50.77
35716;BME280;21840;44.920;8.616;2023-03-26T18:04:34;99187.34;;;17.43;50.80
35716;BME280;21840;44.920;8.616;2023-03-26T18:07:18;99189.44;;;17.28;51.07
35716;BME280;21840;44.920;8.616;2023-03-26T18:12:50;99188.22;;;17.24;51.64
35716;BME280;21840;44.920;8.616;2023-03-26T18:15:43;99190.28;;;17.02;52.00
35716;BME280;21840;44.920;8.616;2023-03-26T18:18:19;99173.94;;;17.25;51.66
35716;BME280;21840;44.920;8.616;2023-03-26T18:20:48;99167.81;;;17.11;51.94
35716;BME280;21840;44.920;8.616;2023-03-26T18:26:15;99190.25;;;17.35;51.37
35716;BME280;21840;44.920;8.616;2023-03-26T18:28:48;99195.53;;;17.35;51.32
35716;BME280;21840;44.920;8.616;2023-03-26T18:33:47;99219.88;;;17.06;52.31
35716;BME280;21840;44.920;8.616;2023-03-26T18:36:14;99223.75;;;16.83;52.64
35716;BME280;21840;44.920;8.616;2023-03-26T18:38:41;99238.41;;;16.92;52.50
35716;BME280;21840;44.920;8.616;2023-03-26T18:41:16;99236.97;;;16.90;52.54
35716;BME280;21840;44.920;8.616;2023-03-26T18:43:46;99248.81;;;17.07;52.60
35716;BME280;21840;44.920;8.616;2023-03-26T18:46:13;99242.72;;;16.93;51.91
35716;BME280;21840;44.920;8.616;2023-03-26T18:48:39;99231.91;;;16.88;52.02
35716;BME280;21840;44.920;8.616;2023-03-26T18:51:05;99227.81;;;16.92;51.97
35716;BME280;21840;44.920;8.616;2023-03-26T18:53:37;99236.69;;;16.45;52.80
35716;BME280;21840;44.920;8.616;2023-03-26T18:56:39;99236.94;;;16.63;52.63
35716;BME280;21840;44.920;8.616;2023-03-26T19:01:47;99234.50;;;16.61;52.86
35716;BME280;21840;44.920;8.616;2023-03-26T19:04:14;99222.81;;;16.36;53.68
35716;BME280;21840;44.920;8.616;2023-03-26T19:06:41;99209.00;;;16.67;52.95
35716;BME280;21840;44.920;8.616;2023-03-26T19:09:08;99210.00;;;16.46;53.30
35716;BME280;21840;44.920;8.616;2023-03-26T19:11:39;99209.81;;;16.54;53.21
35716;BME280;21840;44.920;8.616;2023-03-26T19:14:19;99219.19;;;16.44;53.52
35716;BME280;21840;44.920;8.616;2023-03-26T19:16:51;99218.16;;;16.38;53.67
35716;BME280;21840;44.920;8.616;2023-03-26T19:19:22;99199.00;;;16.43;53.56
35716;BME280;21840;44.920;8.616;2023-03-26T19:21:49;99202.88;;;16.53;53.35
35716;BME280;21840;44.920;8.616;2023-03-26T19:24:17;99200.66;;;16.70;52.92
35716;BME280;21840;44.920;8.616;2023-03-26T19:26:44;99201.88;;;16.74;52.82
35716;BME280;21840;44.920;8.616;2023-03-26T19:29:30;99212.06;;;16.57;53.10
35716;BME280;21840;44.920;8.616;2023-03-26T19:32:04;99215.16;;;16.81;52.61